Time;durP1;ratioP1;P1;durP2;ratioP2;P2;SDS_P1;SDS_P2;PMS_P1;PMS_P2;Temp;Humidity;BMP_temperature;BMP_pressure;BME280_temperature;BME280_humidity;BME280_pressure;Samples;Min_cycle;Max_cycle;Signal;HPM_P1;HPM_P2
2022/12/11 00:02:06;;;;;;;17.77;8.43;;;;;;;-0.02;100.00;95517.28;5061672;28;20200;-70
2022/12/11 00:04:32;;;;;;;24.63;9.60;;;;;;;0.02;100.00;95523.81;5059557;28;20220;-69
2022/12/11 00:06:59;;;;;;;24.57;8.23;;;;;;;-0.05;100.00;95515.91;5060020;28;20243;-71
2022/12/11 00:09:27;;;;;;;21.60;9.27;;;;;;;0.01;100.00;95529.16;5060891;28;21227;-72
2022/12/11 00:11:53;;;;;;;21.67;8.23;;;;;;;0.03;100.00;95529.84;5059991;28;20231;-70
2022/12/11 00:14:20;;;;;;;23.07;8.50;;;;;;;0.10;100.00;95531.78;5059463;28;20219;-70
2022/12/11 00:16:48;;;;;;;21.70;7.73;;;;;;;0.08;100.00;95528.50;5059898;28;20228;-69
2022/12/11 00:19:14;;;;;;;18.00;7.47;;;;;;;-0.12;100.00;95527.75;5060208;28;20301;-72
2022/12/11 00:21:41;;;;;;;20.93;7.90;;;;;;;0.00;100.00;95525.75;5059851;28;20206;-72
2022/12/11 00:24:08;;;;;;;24.53;8.40;;;;;;;0.13;100.00;95526.34;5059152;28;20211;-71
2022/12/11 00:26:36;;;;;;;23.90;8.57;;;;;;;0.28;100.00;95526.78;5059526;28;20216;-72
2022/12/11 00:29:03;;;;;;;19.50;7.90;;;;;;;0.29;100.00;95516.28;5059808;28;20251;-72
2022/12/11 00:31:29;;;;;;;23.47;8.70;;;;;;;0.37;100.00;95518.19;5059338;28;20234;-70
2022/12/11 00:33:56;;;;;;;23.60;9.17;;;;;;;0.39;100.00;95511.13;5058390;28;20953;-69
2022/12/11 00:36:24;;;;;;;23.13;9.47;;;;;;;0.44;100.00;95503.78;5059186;28;20228;-72
2022/12/11 00:38:52;;;;;;;28.37;8.80;;;;;;;0.40;100.00;95508.41;5060100;28;20204;-72
2022/12/11 00:41:18;;;;;;;24.87;10.10;;;;;;;0.34;100.00;95521.06;5059711;28;20209;-70
2022/12/11 00:43:47;;;;;;;23.80;8.70;;;;;;;0.43;100.00;95510.72;5058347;28;20212;-70
2022/12/11 00:46:13;;;;;;;21.27;8.27;;;;;;;0.37;100.00;95519.03;5058718;28;20221;-72
2022/12/11 00:48:40;;;;;;;25.50;9.10;;;;;;;0.35;100.00;95523.53;5059199;28;20235;-71
2022/12/11 00:51:07;;;;;;;33.60;11.77;;;;;;;0.23;100.00;95522.00;5058860;28;20209;-70
2022/12/11 00:53:33;;;;;;;31.20;10.07;;;;;;;0.33;100.00;95522.00;5058815;28;20216;-70
2022/12/11 00:56:00;;;;;;;34.80;10.47;;;;;;;0.32;100.00;95526.38;5059161;28;20263;-69
2022/12/11 00:58:27;;;;;;;35.63;12.07;;;;;;;0.31;100.00;95527.34;5058966;28;20581;-72
2022/12/11 01:00:54;;;;;;;30.77;9.87;;;;;;;0.42;100.00;95526.41;5058613;28;20205;-72
2022/12/11 01:03:21;;;;;;;44.90;13.80;;;;;;;0.44;100.00;95534.88;5058197;28;20942;-71
2022/12/11 01:05:52;;;;;;;31.07;11.80;;;;;;;0.55;100.00;95532.97;5057731;28;20216;-69
2022/12/11 01:08:19;;;;;;;32.63;11.10;;;;;;;0.33;100.00;95533.22;5058154;28;20274;-71
2022/12/11 01:10:45;;;;;;;27.47;10.30;;;;;;;0.44;100.00;95535.69;5058720;28;20209;-72
2022/12/11 01:13:12;;;;;;;22.90;10.37;;;;;;;0.39;100.00;95532.66;5057935;28;20208;-72
2022/12/11 01:15:41;;;;;;;22.57;9.27;;;;;;;0.29;100.00;95534.41;5058054;28;20205;-72
2022/12/11 01:18:09;;;;;;;16.53;7.73;;;;;;;0.40;100.00;95539.50;5058044;28;20221;-72
2022/12/11 01:20:38;;;;;;;17.87;7.83;;;;;;;0.43;100.00;95534.03;5058549;28;20223;-72
2022/12/11 01:23:05;;;;;;;20.53;7.83;;;;;;;0.43;100.00;95538.41;5057772;28;20200;-71
2022/12/11 01:25:32;;;;;;;21.87;7.97;;;;;;;0.47;100.00;95545.78;5057870;28;20201;-72
2022/12/11 01:27:59;;;;;;;21.20;8.40;;;;;;;0.56;100.00;95547.59;5058381;28;20278;-70
2022/12/11 01:30:26;;;;;;;20.37;8.37;;;;;;;0.41;100.00;95548.91;5057984;28;20806;-70
2022/12/11 01:32:52;;;;;;;25.07;8.70;;;;;;;0.41;100.00;95548.91;5058344;28;20215;-69
2022/12/11 01:35:20;;;;;;;21.90;8.57;;;;;;;0.43;100.00;95554.75;5057374;28;20205;-72
2022/12/11 01:37:47;;;;;;;24.47;8.97;;;;;;;0.42;100.00;95545.38;5057741;28;20228;-72
2022/12/11 01:40:15;;;;;;;17.23;6.77;;;;;;;0.44;100.00;95543.44;5058547;28;20797;-72
2022/12/11 01:42:42;;;;;;;19.87;8.17;;;;;;;0.22;99.26;95551.44;5057468;28;20213;-70
2022/12/11 01:45:32;;;;;;;20.60;7.83;;;;;;;0.25;100.00;95550.34;5056709;28;21182;-68
2022/12/11 01:48:04;;;;;;;21.73;7.43;;;;;;;0.29;100.00;95546.56;5058561;28;20882;-70
2022/12/11 01:50:36;;;;;;;28.37;10.23;;;;;;;0.32;100.00;95544.53;5057274;28;20219;-71
2022/12/11 01:53:06;;;;;;;32.13;11.83;;;;;;;0.30;99.33;95546.41;5057894;28;20223;-71
2022/12/11 01:55:34;;;;;;;25.73;10.67;;;;;;;0.21;99.86;95549.78;5058020;28;20299;-72
2022/12/11 01:58:02;;;;;;;23.13;9.47;;;;;;;0.35;100.00;95543.44;5057385;28;20735;-72
2022/12/11 02:00:29;;;;;;;18.87;8.40;;;;;;;0.33;100.00;95548.75;5057497;28;20203;-69
2022/12/11 02:02:56;;;;;;;26.70;9.33;;;;;;;0.40;100.00;95547.25;5058621;28;20215;-69
2022/12/11 02:05:22;;;;;;;20.57;7.53;;;;;;;0.17;100.00;95551.00;5058169;28;20619;-70
2022/12/11 02:07:55;;;;;;;21.27;7.87;;;;;;;0.35;100.00;95549.44;5056858;28;21169;-72
2022/12/11 02:10:24;;;;;;;19.57;8.27;;;;;;;0.41;100.00;95551.50;5057253;28;20216;-72
2022/12/11 02:12:58;;;;;;;24.43;8.13;;;;;;;0.42;100.00;95547.13;5058191;28;20201;-71
2022/12/11 02:15:33;;;;;;;20.63;8.10;;;;;;;0.14;100.00;95546.09;5056721;28;20584;-70
2022/12/11 02:18:15;;;;;;;21.80;7.83;;;;;;;0.45;100.00;95552.06;5057417;28;20224;-72
2022/12/11 02:20:47;;;;;;;23.93;8.83;;;;;;;0.38;100.00;95544.00;5058371;28;20552;-72
2022/12/11 02:23:34;;;;;;;19.63;7.53;;;;;;;0.34;100.00;95545.19;5057206;28;20695;-71
2022/12/11 02:26:13;;;;;;;17.90;6.97;;;;;;;0.34;100.00;95549.56;5056872;28;20204;-71
2022/12/11 02:28:46;;;;;;;24.90;7.97;;;;;;;0.39;100.00;95539.63;5056343;28;20227;-71
2022/12/11 02:31:17;;;;;;;25.83;9.37;;;;;;;0.45;100.00;95542.50;5056213;28;20209;-71
2022/12/11 02:33:48;;;;;;;22.33;8.03;;;;;;;0.44;100.00;95548.63;5055786;28;20210;-71
2022/12/11 02:36:18;;;;;;;23.27;8.27;;;;;;;0.31;99.46;95555.84;5056635;28;20228;-71
2022/12/11 02:38:49;;;;;;;16.93;8.17;;;;;;;0.30;100.00;95551.59;5055961;28;20204;-71
2022/12/11 02:41:18;;;;;;;21.40;8.63;;;;;;;0.37;99.66;95551.88;5056063;28;20688;-71
2022/12/11 02:43:49;;;;;;;22.37;7.80;;;;;;;0.38;97.89;95556.97;5055872;28;20218;-71
2022/12/11 02:46:17;;;;;;;21.03;8.00;;;;;;;0.46;99.31;95554.50;5056400;28;20228;-71
2022/12/11 02:48:48;;;;;;;21.10;7.80;;;;;;;0.47;98.14;95563.94;5056117;28;20224;-71
2022/12/11 02:51:16;;;;;;;17.40;7.50;;;;;;;0.47;98.38;95560.50;5056258;28;20208;-71
2022/12/11 02:53:45;;;;;;;26.27;8.80;;;;;;;0.35;97.42;95556.41;5055424;28;20216;-71
2022/12/11 02:56:18;;;;;;;19.53;7.30;;;;;;;0.42;98.82;95558.34;5059356;28;20226;-71
2022/12/11 02:58:50;;;;;;;21.07;7.33;;;;;;;0.34;98.99;95555.56;5059968;28;20200;-71
2022/12/11 03:01:16;;;;;;;17.90;6.53;;;;;;;0.21;98.35;95556.75;5059498;28;20205;-71
2022/12/11 03:03:43;;;;;;;20.27;7.67;;;;;;;0.22;100.00;95558.41;5058572;28;20208;-71
2022/12/11 03:06:13;;;;;;;23.20;7.57;;;;;;;0.28;100.00;95556.09;5059785;28;20220;-71
2022/12/11 03:08:40;;;;;;;15.53;7.10;;;;;;;0.22;99.74;95561.81;5059313;28;20225;-71
2022/12/11 03:11:10;;;;;;;14.37;6.13;;;;;;;0.19;99.98;95556.91;5059306;28;20310;-71
2022/12/11 03:13:37;;;;;;;20.30;7.00;;;;;;;0.16;100.00;95561.50;5058897;28;20214;-71
2022/12/11 03:16:12;;;;;;;25.27;8.23;;;;;;;0.32;100.00;95559.22;5059787;28;20248;-71
2022/12/11 03:18:44;;;;;;;21.60;7.27;;;;;;;0.19;100.00;95551.72;5059380;28;20208;-71
2022/12/11 03:21:16;;;;;;;21.83;8.03;;;;;;;0.28;100.00;95556.09;5059441;28;20218;-71
2022/12/11 03:23:50;;;;;;;20.47;6.83;;;;;;;0.28;100.00;95556.09;5058784;28;20938;-71
2022/12/11 03:26:19;;;;;;;20.10;8.23;;;;;;;0.19;100.00;95554.31;5059384;28;20777;-71
2022/12/11 03:28:49;;;;;;;21.93;8.00;;;;;;;0.29;100.00;95546.56;5059372;28;20699;-71
2022/12/11 03:31:25;;;;;;;24.00;8.03;;;;;;;0.28;100.00;95543.16;5059146;28;20585;-71
2022/12/11 03:33:56;;;;;;;23.67;7.47;;;;;;;0.25;100.00;95551.16;5058571;28;20204;-71
2022/12/11 03:36:26;;;;;;;17.13;6.80;;;;;;;0.25;100.00;95551.16;5059189;28;20229;-71
2022/12/11 03:38:58;;;;;;;18.37;8.67;;;;;;;0.23;100.00;95560.84;5059152;28;20208;-71
2022/12/11 03:41:27;;;;;;;23.07;7.73;;;;;;;0.16;100.00;95557.13;5058492;28;20242;-71
2022/12/11 03:43:57;;;;;;;20.93;8.20;;;;;;;0.17;100.00;95560.56;5056611;28;20215;-71
2022/12/11 03:46:30;;;;;;;21.20;8.90;;;;;;;0.05;100.00;95564.19;5060224;28;20220;-71
2022/12/11 03:49:01;;;;;;;22.53;8.10;;;;;;;0.08;100.00;95558.75;5059987;28;20224;-72
2022/12/11 03:51:29;;;;;;;20.50;8.30;;;;;;;0.02;100.00;95554.91;5059169;28;20200;-71
2022/12/11 03:53:56;;;;;;;22.23;9.23;;;;;;;-0.06;100.00;95551.34;5060067;28;20204;-72
2022/12/11 03:56:26;;;;;;;22.07;8.03;;;;;;;0.09;100.00;95560.41;5060141;28;20283;-69
2022/12/11 03:58:53;;;;;;;8.00;4.10;;;;;;;0.02;100.00;95561.88;5059667;28;20204;-70
2022/12/11 04:01:20;;;;;;;19.10;7.00;;;;;;;0.07;100.00;95564.88;5059561;28;20226;-69
2022/12/11 04:03:48;;;;;;;19.67;7.60;;;;;;;0.03;100.00;95564.31;5059513;28;20581;-72
2022/12/11 04:06:14;;;;;;;16.33;8.17;;;;;;;0.01;100.00;95558.47;5058886;28;20227;-71
2022/12/11 04:08:41;;;;;;;11.63;5.20;;;;;;;-0.24;100.00;95552.91;5059731;28;20211;-69
2022/12/11 04:15:00;;;;;;;18.67;7.30;;;;;;;-0.14;100.00;95555.53;5047814;28;20208;-72
2022/12/11 04:16:37;;;;;;;17.47;6.60;;;;;;;-0.13;100.00;95557.97;5059846;28;21191;-68
2022/12/11 04:24:33;;;;;;;19.20;8.13;;;;;;;0.01;100.00;95562.81;5059435;28;20226;-73
2022/12/11 04:27:00;;;;;;;23.87;8.60;;;;;;;-0.04;100.00;95554.59;5061693;28;20224;-72
2022/12/11 04:29:26;;;;;;;26.27;8.93;;;;;;;0.00;100.00;95558.59;5059767;28;20239;-70
2022/12/11 04:31:53;;;;;;;23.07;7.57;;;;;;;-0.05;100.00;95550.41;5060693;28;20208;-72
2022/12/11 04:34:21;;;;;;;19.90;8.03;;;;;;;-0.09;100.00;95550.78;5058367;28;20341;-72
2022/12/11 04:36:47;;;;;;;20.77;8.70;;;;;;;-0.15;100.00;95557.31;5059108;28;20231;-72
2022/12/11 04:39:14;;;;;;;17.20;6.17;;;;;;;-0.13;100.00;95554.56;5059716;28;20208;-70
2022/12/11 04:41:41;;;;;;;19.47;7.90;;;;;;;-0.25;100.00;95553.03;5059398;28;20680;-71
2022/12/11 04:44:07;;;;;;;18.40;8.17;;;;;;;-0.17;100.00;95548.03;5058620;28;20238;-71
2022/12/11 04:46:34;;;;;;;20.77;7.90;;;;;;;-0.24;100.00;95547.72;5059551;28;20228;-72
2022/12/11 04:49:01;;;;;;;22.57;8.97;;;;;;;-0.16;100.00;95547.09;5058463;28;20224;-71
2022/12/11 04:51:29;;;;;;;20.37;8.37;;;;;;;-0.19;100.00;95549.91;5057785;28;20685;-71
2022/12/11 04:53:55;;;;;;;18.57;7.87;;;;;;;-0.40;100.00;95549.13;5057488;28;20211;-71
2022/12/11 04:56:22;;;;;;;31.00;9.37;;;;;;;-0.47;100.00;95555.75;5057635;28;20216;-71
2022/12/11 04:58:48;;;;;;;28.00;9.73;;;;;;;-0.35;100.00;95546.97;5057709;28;20238;-71
2022/12/11 05:01:16;;;;;;;29.83;9.93;;;;;;;-0.33;100.00;95555.41;5057970;28;20205;-71
2022/12/11 05:03:44;;;;;;;29.23;10.73;;;;;;;-0.40;100.00;95546.53;5056286;28;20215;-71
2022/12/11 05:06:11;;;;;;;38.03;10.17;;;;;;;-0.41;100.00;95545.75;5057246;28;20231;-71
2022/12/11 05:08:41;;;;;;;31.83;10.43;;;;;;;-0.29;100.00;95538.72;5057454;28;20215;-71
2022/12/11 05:11:10;;;;;;;30.63;10.80;;;;;;;-0.36;100.00;95542.75;5057791;28;20672;-71
2022/12/11 05:13:37;;;;;;;32.03;11.17;;;;;;;-0.42;100.00;95544.09;5057060;28;20211;-71
2022/12/11 05:16:04;;;;;;;23.80;9.57;;;;;;;-0.35;100.00;95549.56;5057081;28;20203;-71
2022/12/11 05:18:31;;;;;;;28.17;10.00;;;;;;;-0.58;100.00;95543.72;5056499;28;20223;-71
2022/12/11 05:21:00;;;;;;;31.07;10.87;;;;;;;-0.44;100.00;95540.78;5057636;28;20215;-71
2022/12/11 05:23:27;;;;;;;31.43;10.40;;;;;;;-0.56;100.00;95535.81;5057057;28;20865;-71
2022/12/11 05:25:56;;;;;;;22.63;10.80;;;;;;;-0.66;100.00;95540.13;5056999;28;20214;-71
2022/12/11 05:28:24;;;;;;;15.20;7.23;;;;;;;-0.70;100.00;95543.94;5056904;28;20208;-71
2022/12/11 05:30:55;;;;;;;18.50;6.93;;;;;;;-0.72;100.00;95543.22;5056697;28;20224;-71
2022/12/11 05:33:22;;;;;;;15.43;6.30;;;;;;;-0.84;100.00;95545.97;5056792;28;20208;-71
2022/12/11 05:35:48;;;;;;;9.80;5.87;;;;;;;-0.82;99.93;95542.34;5056507;28;20208;-71
2022/12/11 05:38:15;;;;;;;11.43;4.57;;;;;;;-0.98;99.66;95547.13;5056837;28;20207;-71
2022/12/11 05:40:42;;;;;;;18.83;7.30;;;;;;;-0.97;100.00;95541.03;5056924;28;20583;-71
2022/12/11 05:43:10;;;;;;;18.47;7.53;;;;;;;-1.03;100.00;95540.66;5056913;28;20218;-71
2022/12/11 05:45:37;;;;;;;15.10;7.17;;;;;;;-1.12;100.00;95526.75;5056743;28;20215;-71
2022/12/11 05:48:04;;;;;;;22.73;8.53;;;;;;;-1.10;100.00;95518.88;5056849;28;20228;-71
2022/12/11 05:50:30;;;;;;;16.53;6.07;;;;;;;-1.15;100.00;95519.22;5056232;28;20219;-71
2022/12/11 05:52:57;;;;;;;19.37;7.23;;;;;;;-1.15;100.00;95519.22;5057481;28;20205;-71
2022/12/11 05:55:23;;;;;;;18.03;7.50;;;;;;;-1.12;100.00;95521.59;5055797;28;20702;-71
2022/12/11 05:57:50;;;;;;;20.67;7.70;;;;;;;-1.11;100.00;95518.06;5056482;28;20224;-71
2022/12/11 06:00:18;;;;;;;16.70;7.90;;;;;;;-1.06;100.00;95526.25;5056639;28;20725;-71
2022/12/11 06:02:44;;;;;;;16.40;6.67;;;;;;;-1.14;100.00;95522.66;5057124;28;20204;-71
2022/12/11 06:05:11;;;;;;;20.83;8.70;;;;;;;-1.35;100.00;95524.38;5055502;28;20208;-71
2022/12/11 06:07:37;;;;;;;17.37;7.47;;;;;;;-1.37;100.00;95525.47;5056984;28;20254;-71
2022/12/11 06:10:05;;;;;;;18.70;8.20;;;;;;;-1.24;100.00;95524.34;5056172;28;20750;-71
2022/12/11 06:12:31;;;;;;;22.77;8.60;;;;;;;-1.23;100.00;95517.38;5056316;28;20203;-71
2022/12/11 06:14:58;;;;;;;18.50;7.93;;;;;;;-1.26;100.00;95527.97;5056211;28;20215;-71
2022/12/11 06:17:26;;;;;;;19.97;8.27;;;;;;;-1.21;100.00;95522.31;5056918;28;20326;-72
2022/12/11 06:19:52;;;;;;;18.20;7.97;;;;;;;-1.29;100.00;95528.25;5056783;28;20203;-72
2022/12/11 06:22:19;;;;;;;22.90;7.50;;;;;;;-1.34;100.00;95525.19;5056053;28;20214;-71
2022/12/11 06:24:46;;;;;;;20.13;7.93;;;;;;;-1.37;99.71;95533.22;5055545;28;20227;-73
2022/12/11 06:27:13;;;;;;;20.27;7.97;;;;;;;-1.45;100.00;95528.66;5056466;28;20220;-74
2022/12/11 06:29:40;;;;;;;21.27;8.27;;;;;;;-1.34;100.00;95525.19;5056890;28;20230;-72
2022/12/11 06:32:06;;;;;;;16.80;7.40;;;;;;;-1.28;99.94;95524.72;5060207;28;20201;-74
2022/12/11 06:34:34;;;;;;;16.63;6.73;;;;;;;-1.37;98.28;95525.47;5059699;28;20208;-72
2022/12/11 06:37:01;;;;;;;16.37;6.70;;;;;;;-1.50;97.89;95525.59;5060330;28;20225;-74
2022/12/11 06:39:27;;;;;;;20.23;8.07;;;;;;;-1.60;99.76;95523.88;5059652;28;20718;-71
2022/12/11 06:41:54;;;;;;;19.67;7.00;;;;;;;-1.59;100.00;95522.91;5060056;28;20212;-74
2022/12/11 06:44:20;;;;;;;29.38;10.95;;;;;;;-1.79;100.00;95513.38;5058989;28;20430;-73
2022/12/11 06:46:47;;;;;;;19.23;7.63;;;;;;;-1.77;100.00;95514.03;5059691;28;20225;-72
2022/12/11 06:49:13;;;;;;;18.03;7.40;;;;;;;-1.71;100.00;95521.31;5060227;28;20223;-73
2022/12/11 06:51:41;;;;;;;17.43;6.73;;;;;;;-1.66;100.00;95514.03;5060432;28;20219;-73
2022/12/11 06:54:08;;;;;;;16.87;6.00;;;;;;;-1.82;99.20;95517.00;5058179;28;20592;-73
2022/12/11 06:56:34;;;;;;;15.50;6.20;;;;;;;-1.87;97.96;95514.91;5059626;28;20231;-73
2022/12/11 06:59:01;;;;;;;10.97;5.57;;;;;;;-2.02;98.92;95522.09;5061203;28;20207;-72
2022/12/11 07:01:28;;;;;;;17.20;7.07;;;;;;;-2.24;100.00;95516.94;5060392;28;20199;-72
2022/12/11 07:03:56;;;;;;;11.63;5.27;;;;;;;-2.31;100.00;95528.66;5059303;28;20319;-74
2022/12/11 07:06:23;;;;;;;15.90;6.93;;;;;;;-2.13;99.91;95519.50;5058997;28;20227;-74
2022/12/11 07:08:51;;;;;;;21.00;6.17;;;;;;;-2.06;98.62;95528.44;5060114;28;20216;-72
2022/12/11 07:11:20;;;;;;;15.80;6.97;;;;;;;-2.06;98.47;95520.69;5059741;28;20589;-73
2022/12/11 07:13:48;;;;;;;14.17;6.47;;;;;;;-2.15;100.00;95520.56;5062897;28;20691;-73
2022/12/11 07:16:16;;;;;;;16.17;6.70;;;;;;;-2.12;97.92;95525.50;5060329;28;20228;-71
2022/12/11 07:18:46;;;;;;;16.33;6.17;;;;;;;-2.04;97.88;95525.72;5065473;28;20583;-71
2022/12/11 07:21:14;;;;;;;29.07;8.37;;;;;;;-2.05;98.31;95524.06;5065169;28;20204;-70
2022/12/11 07:23:41;;;;;;;18.53;7.20;;;;;;;-2.01;97.68;95523.75;5061461;28;20688;-71
2022/12/11 07:26:11;;;;;;;20.90;7.83;;;;;;;-1.99;96.73;95533.94;5059277;28;20228;-71
2022/12/11 07:28:39;;;;;;;14.33;6.07;;;;;;;-2.10;96.40;95534.78;5059177;28;20200;-71
2022/12/11 07:31:06;;;;;;;19.73;6.97;;;;;;;-2.20;96.40;95538.16;5059498;28;20733;-71
2022/12/11 07:33:33;;;;;;;13.30;6.20;;;;;;;-2.46;99.00;95533.38;5059053;28;20200;-71
2022/12/11 07:36:01;;;;;;;13.83;6.47;;;;;;;-2.26;99.53;95528.31;5059120;28;20215;-69
2022/12/11 07:38:28;;;;;;;19.13;6.60;;;;;;;-2.30;97.53;95532.91;5064717;28;20211;-71
2022/12/11 07:40:54;;;;;;;17.13;7.23;;;;;;;-2.36;96.35;95530.78;5063291;28;20231;-71
2022/12/11 07:43:22;;;;;;;12.87;6.57;;;;;;;-2.48;99.17;95537.81;5063126;28;20198;-71
2022/12/11 07:45:49;;;;;;;13.83;6.20;;;;;;;-2.52;100.00;95541.56;5064092;28;20213;-70
2022/12/11 07:48:15;;;;;;;18.50;7.33;;;;;;;-2.45;100.00;95537.59;5064704;28;20847;-70
2022/12/11 07:50:42;;;;;;;23.57;8.63;;;;;;;-2.18;100.00;95536.28;5063894;28;20227;-70
2022/12/11 07:53:08;;;;;;;22.33;8.47;;;;;;;-1.94;99.78;95540.38;5063097;28;20210;-69
2022/12/11 07:55:35;;;;;;;24.10;8.97;;;;;;;-1.86;99.15;95543.16;5063047;28;20197;-71
2022/12/11 07:58:01;;;;;;;25.97;9.80;;;;;;;-1.87;100.00;95541.56;5062954;28;20234;-72
2022/12/11 08:00:29;;;;;;;17.70;7.33;;;;;;;-2.15;100.00;95552.38;5062844;28;20196;-70
2022/12/11 08:02:56;;;;;;;18.33;8.00;;;;;;;-1.94;100.00;95544.72;5063765;28;20200;-71
2022/12/11 08:05:22;;;;;;;28.03;9.87;;;;;;;-1.63;99.96;95561.09;5063289;28;20615;-71
2022/12/11 08:07:49;;;;;;;19.77;8.70;;;;;;;-1.55;98.45;95550.19;5062247;28;20242;-72
2022/12/11 08:10:15;;;;;;;15.50;7.97;;;;;;;-1.35;97.77;95562.31;5063078;28;20248;-72
2022/12/11 08:12:42;;;;;;;38.00;13.33;;;;;;;-1.30;98.22;95555.00;5062770;28;20200;-72
2022/12/11 08:15:09;;;;;;;26.27;10.07;;;;;;;-1.17;96.57;95556.50;5061102;28;20601;-70
2022/12/11 08:17:37;;;;;;;16.73;7.57;;;;;;;-1.14;96.15;95564.81;5061383;28;20236;-70
2022/12/11 08:20:04;;;;;;;16.53;7.13;;;;;;;-1.01;95.82;95565.44;5061478;28;20211;-72
2022/12/11 08:22:31;;;;;;;15.43;6.53;;;;;;;-0.98;94.48;95561.81;5062088;28;20197;-71
2022/12/11 08:24:57;;;;;;;13.07;5.83;;;;;;;-0.78;93.92;95559.22;5059074;28;20706;-71
2022/12/11 08:27:25;;;;;;;22.60;11.13;;;;;;;-0.88;95.37;95566.13;5058613;28;20240;-71
2022/12/11 08:29:51;;;;;;;21.50;9.50;;;;;;;-0.78;95.72;95561.00;5060042;28;20201;-72
2022/12/11 08:32:18;;;;;;;24.33;9.23;;;;;;;-0.88;95.85;95560.13;5062301;28;20719;-71
2022/12/11 08:34:46;;;;;;;20.70;8.87;;;;;;;-0.78;95.26;95556.66;5062937;28;20227;-72
2022/12/11 08:37:12;;;;;;;16.10;6.63;;;;;;;-0.93;95.72;95568.25;5062930;28;20216;-72
2022/12/11 08:39:39;;;;;;;16.53;8.20;;;;;;;-0.80;94.22;95575.81;5060624;28;20207;-73
2022/12/11 08:42:07;;;;;;;19.07;8.27;;;;;;;-0.72;94.84;95571.66;5057745;28;21099;-73
2022/12/11 08:44:33;;;;;;;14.10;6.63;;;;;;;-0.85;94.22;95576.22;5056386;28;20593;-73
2022/12/11 08:47:00;;;;;;;8.83;4.93;;;;;;;-0.90;94.03;95573.19;5057692;28;20231;-74
2022/12/11 08:49:26;;;;;;;15.73;6.33;;;;;;;-1.01;94.25;95565.44;5057423;28;20202;-74
2022/12/11 08:51:54;;;;;;;13.90;5.53;;;;;;;-0.97;95.15;95560.88;5057784;28;20228;-72
2022/12/11 08:54:21;;;;;;;20.00;7.87;;;;;;;-0.97;96.96;95553.09;5057038;28;20208;-73
2022/12/11 08:56:47;;;;;;;14.87;6.80;;;;;;;-0.85;95.28;95559.84;5057810;28;20224;-72
2022/12/11 08:59:14;;;;;;;20.83;8.17;;;;;;;-0.83;95.72;95557.97;5057529;28;20250;-72
2022/12/11 09:01:40;;;;;;;20.43;8.60;;;;;;;-0.67;95.81;95556.59;5057708;28;20208;-73
2022/12/11 09:04:07;;;;;;;22.73;8.60;;;;;;;-0.68;94.96;95552.38;5056775;28;20714;-72
2022/12/11 09:06:33;;;;;;;19.33;8.67;;;;;;;-0.58;95.22;95555.84;5057040;28;20216;-71
2022/12/11 09:09:03;;;;;;;22.37;9.93;;;;;;;-0.50;94.55;95548.25;5059271;28;20203;-72
2022/12/11 09:11:32;;;;;;;14.77;7.03;;;;;;;-0.40;94.28;95544.75;5057670;28;20670;-71
2022/12/11 09:14:00;;;;;;;21.47;7.77;;;;;;;-0.49;94.04;95542.94;5056914;28;20208;-72
2022/12/11 09:16:27;;;;;;;21.63;8.30;;;;;;;-0.62;94.75;95537.16;5058419;28;20235;-72
2022/12/11 09:18:56;;;;;;;23.77;8.27;;;;;;;-0.58;96.00;95550.66;5058167;28;20381;-71
2022/12/11 09:21:25;;;;;;;16.20;6.07;;;;;;;-0.56;97.09;95549.59;5062923;28;20207;-72
2022/12/11 09:23:53;;;;;;;21.97;7.53;;;;;;;-0.29;94.60;95549.06;5062725;28;20268;-72
2022/12/11 09:26:21;;;;;;;19.37;6.93;;;;;;;-0.39;93.98;95545.59;5062366;28;20224;-72
2022/12/11 09:28:50;;;;;;;17.23;7.37;;;;;;;-0.89;95.05;95548.97;5063250;28;20208;-72
2022/12/11 09:31:19;;;;;;;20.90;6.60;;;;;;;-0.76;95.48;95553.94;5062637;28;20231;-72
2022/12/11 09:33:46;;;;;;;22.47;8.67;;;;;;;-0.65;96.51;95540.94;5062638;28;20204;-72
2022/12/11 09:36:13;;;;;;;17.53;7.83;;;;;;;-0.98;95.99;95541.97;5062221;28;20243;-72
2022/12/11 09:38:42;;;;;;;16.80;7.47;;;;;;;-0.78;95.62;95541.13;5061930;28;21018;-72
2022/12/11 09:41:28;;;;;;;20.90;8.57;;;;;;;-0.56;95.63;95541.00;5062222;28;21051;-72
2022/12/11 09:44:02;;;;;;;24.60;6.77;;;;;;;-0.47;94.85;95535.06;5061886;28;20234;-72
2022/12/11 09:46:31;;;;;;;11.47;4.80;;;;;;;-0.73;94.07;95541.56;5058421;28;20585;-73
2022/12/11 09:48:58;;;;;;;15.70;6.70;;;;;;;-0.61;94.74;95535.41;5057102;28;20204;-71
2022/12/11 09:51:30;;;;;;;15.33;6.27;;;;;;;-0.50;94.39;95532.72;5056753;28;20228;-72
2022/12/11 09:54:01;;;;;;;15.67;6.53;;;;;;;-0.29;92.81;95534.34;5056118;28;20205;-72
2022/12/11 09:56:33;;;;;;;20.60;6.43;;;;;;;0.05;92.63;95539.13;5056566;28;20226;-72
2022/12/11 09:59:09;;;;;;;19.23;6.93;;;;;;;0.13;92.25;95525.53;5057041;28;20218;-72
2022/12/11 10:01:44;;;;;;;24.03;8.03;;;;;;;0.33;91.31;95530.63;5059078;28;20207;-73
2022/12/11 10:04:24;;;;;;;15.67;7.23;;;;;;;0.64;89.64;95521.81;5061102;28;20204;-72
2022/12/11 10:07:01;;;;;;;12.60;5.23;;;;;;;0.86;88.46;95522.34;5062669;28;20235;-72
2022/12/11 10:09:39;;;;;;;14.07;5.80;;;;;;;0.94;86.94;95519.06;5061045;28;20201;-70
2022/12/11 10:12:24;;;;;;;18.43;7.60;;;;;;;0.44;88.57;95522.72;5063022;28;20228;-70
2022/12/11 10:15:05;;;;;;;13.43;6.40;;;;;;;0.86;87.28;95518.94;5062460;28;20211;-70
2022/12/11 10:17:33;;;;;;;11.60;4.90;;;;;;;0.82;87.49;95517.59;5062501;28;20228;-72
2022/12/11 10:20:13;;;;;;;11.43;5.97;;;;;;;0.80;87.46;95517.72;5062892;28;20208;-71
2022/12/11 10:22:40;;;;;;;14.73;5.40;;;;;;;0.40;90.17;95511.00;5061856;28;20204;-72
2022/12/11 10:25:15;;;;;;;10.43;4.97;;;;;;;-0.02;90.16;95519.88;5061790;28;20209;-72
2022/12/11 10:27:44;;;;;;;7.50;4.07;;;;;;;0.05;88.90;95518.41;5060900;28;20786;-70
2022/12/11 10:30:16;;;;;;;10.97;4.97;;;;;;;-0.22;90.31;95519.13;5062331;28;20204;-72
2022/12/11 10:32:51;;;;;;;15.07;6.07;;;;;;;-0.09;90.67;95514.53;5062610;28;20286;-70
2022/12/11 10:35:26;;;;;;;12.37;6.20;;;;;;;-0.06;90.48;95514.25;5061869;28;20287;-73
2022/12/11 10:37:57;;;;;;;25.30;5.53;;;;;;;0.09;90.78;95504.25;5062350;28;20224;-72
2022/12/11 10:40:25;;;;;;;11.33;5.07;;;;;;;0.02;90.75;95507.47;5061247;28;20213;-70
2022/12/11 10:42:53;;;;;;;16.47;6.43;;;;;;;0.08;91.02;95491.44;5061524;28;20219;-70
2022/12/11 10:45:20;;;;;;;11.47;5.10;;;;;;;0.18;90.58;95494.88;5060740;28;20587;-72
2022/12/11 10:47:47;;;;;;;15.00;4.47;;;;;;;0.02;90.08;95495.34;5062850;28;20228;-72
2022/12/11 10:50:22;;;;;;;17.03;5.33;;;;;;;0.01;89.32;95485.97;5062428;28;20236;-72
2022/12/11 10:52:49;;;;;;;15.67;6.07;;;;;;;-0.16;92.33;95484.97;5062578;28;20211;-71
2022/12/11 10:55:21;;;;;;;14.00;6.67;;;;;;;0.04;90.72;95474.53;5062869;28;20586;-72
2022/12/11 10:57:58;;;;;;;17.47;5.50;;;;;;;0.08;90.04;95476.69;5062204;28;20224;-72
2022/12/11 11:00:36;;;;;;;10.80;5.40;;;;;;;0.50;89.05;95472.13;5061286;28;20204;-71
2022/12/11 11:03:04;;;;;;;11.30;5.00;;;;;;;0.58;89.00;95472.28;5061913;28;20240;-72
2022/12/11 11:05:33;;;;;;;17.73;6.17;;;;;;;0.87;88.65;95466.16;5061812;28;20207;-70
2022/12/11 11:08:10;;;;;;;13.87;5.67;;;;;;;0.88;87.15;95463.41;5058854;28;20236;-72
2022/12/11 11:10:37;;;;;;;15.27;6.60;;;;;;;0.80;86.78;95459.84;5055867;28;20579;-71
2022/12/11 11:13:05;;;;;;;12.33;5.37;;;;;;;1.08;86.65;95452.03;5055768;28;20606;-72
2022/12/11 11:15:32;;;;;;;14.67;6.23;;;;;;;0.94;86.41;95451.66;5055337;28;20211;-72
2022/12/11 11:18:10;;;;;;;11.93;5.53;;;;;;;1.02;86.53;95451.78;5058662;28;20228;-72
2022/12/11 11:20:37;;;;;;;18.53;5.97;;;;;;;0.84;86.15;95443.91;5059252;28;20204;-72
2022/12/11 11:23:13;;;;;;;14.20;6.63;;;;;;;0.86;87.67;95449.75;5059404;28;20204;-72
2022/12/11 11:25:39;;;;;;;28.00;9.43;;;;;;;0.90;86.44;95439.94;5058586;28;20222;-72
2022/12/11 11:28:18;;;;;;;20.47;7.33;;;;;;;0.66;88.20;95444.72;5059268;28;20275;-72
2022/12/11 11:30:57;;;;;;;16.10;5.43;;;;;;;0.66;86.92;95431.75;5058564;28;20672;-72
2022/12/11 11:33:24;;;;;;;15.00;5.83;;;;;;;0.70;86.76;95422.75;5059061;28;20204;-72
2022/12/11 11:35:52;;;;;;;17.47;7.43;;;;;;;0.72;86.97;95426.03;5058097;28;20201;-72
2022/12/11 11:38:21;;;;;;;16.97;7.83;;;;;;;0.87;87.80;95425.47;5058587;28;20575;-72
2022/12/11 11:40:54;;;;;;;21.70;8.03;;;;;;;1.22;87.85;95431.69;5060576;28;20207;-72